sensor_id;sensor_type;location;lat;lon;timestamp;pressure;altitude;pressure_sealevel;temperature;humidity
58473;BME280;44775;51.564;5.460;2023-03-01T00:01:21;102825.09;;;-1.56;85.01
58473;BME280;44775;51.564;5.460;2023-03-01T00:03:47;102818.44;;;-1.69;86.50
58473;BME280;44775;51.564;5.460;2023-03-01T00:06:12;102815.81;;;-1.68;86.10
58473;BME280;44775;51.564;5.460;2023-03-01T00:08:38;102818.72;;;-1.78;86.51
58473;BME280;44775;51.564;5.460;2023-03-01T00:11:07;102821.38;;;-1.80;87.64
58473;BME280;44775;51.564;5.460;2023-03-01T00:13:33;102816.34;;;-1.89;87.48
58473;BME280;44775;51.564;5.460;2023-03-01T00:15:58;102825.25;;;-1.95;86.99
58473;BME280;44775;51.564;5.460;2023-03-01T00:18:24;102828.81;;;-1.97;87.58
58473;BME280;44775;51.564;5.460;2023-03-01T00:20:53;102828.97;;;-2.03;88.48
58473;BME280;44775;51.564;5.460;2023-03-01T00:23:19;102810.19;;;-2.21;88.38
58473;BME280;44775;51.564;5.460;2023-03-01T00:25:45;102823.88;;;-2.09;88.33
58473;BME280;44775;51.564;5.460;2023-03-01T00:28:10;102829.31;;;-2.17;88.56
58473;BME280;44775;51.564;5.460;2023-03-01T00:30:35;102824.25;;;-2.25;89.03
58473;BME280;44775;51.564;5.460;2023-03-01T00:33:01;102824.41;;;-2.31;89.96
58473;BME280;44775;51.564;5.460;2023-03-01T00:35:26;102828.06;;;-2.38;90.32
58473;BME280;44775;51.564;5.460;2023-03-01T00:37:51;102825.38;;;-2.35;90.63
58473;BME280;44775;51.564;5.460;2023-03-01T00:40:29;102828.00;;;-2.35;92.03
58473;BME280;44775;51.564;5.460;2023-03-01T00:42:55;102832.47;;;-2.40;92.40
58473;BME280;44775;51.564;5.460;2023-03-01T00:45:21;102837.56;;;-2.32;91.95
58473;BME280;44775;51.564;5.460;2023-03-01T00:47:48;102822.63;;;-2.29;90.79
58473;BME280;44775;51.564;5.460;2023-03-01T00:50:13;102826.28;;;-2.36;91.70
58473;BME280;44775;51.564;5.460;2023-03-01T00:52:38;102822.84;;;-2.38;92.18
58473;BME280;44775;51.564;5.460;2023-03-01T00:55:04;102814.00;;;-2.34;92.08
58473;BME280;44775;51.564;5.460;2023-03-01T00:57:30;102819.38;;;-2.40;92.27
58473;BME280;44775;51.564;5.460;2023-03-01T00:59:56;102801.19;;;-2.45;92.37
58473;BME280;44775;51.564;5.460;2023-03-01T01:02:21;102799.41;;;-2.44;93.08
58473;BME280;44775;51.564;5.460;2023-03-01T01:04:47;102795.09;;;-2.47;93.33
58473;BME280;44775;51.564;5.460;2023-03-01T01:07:13;102794.50;;;-2.56;93.55
58473;BME280;44775;51.564;5.460;2023-03-01T01:09:39;102802.25;;;-2.53;93.22
58473;BME280;44775;51.564;5.460;2023-03-01T01:12:04;102798.81;;;-2.55;94.49
58473;BME280;44775;51.564;5.460;2023-03-01T01:14:30;102797.97;;;-2.56;94.28
58473;BME280;44775;51.564;5.460;2023-03-01T01:16:55;102806.69;;;-2.57;94.30
58473;BME280;44775;51.564;5.460;2023-03-01T01:19:21;102789.34;;;-2.61;95.80
58473;BME280;44775;51.564;5.460;2023-03-01T01:21:47;102789.34;;;-2.61;94.22
58473;BME280;44775;51.564;5.460;2023-03-01T01:24:13;102784.09;;;-2.59;94.34
58473;BME280;44775;51.564;5.460;2023-03-01T01:26:39;102785.09;;;-2.67;95.35
58473;BME280;44775;51.564;5.460;2023-03-01T01:29:05;102764.44;;;-2.77;94.65
58473;BME280;44775;51.564;5.460;2023-03-01T01:31:31;102773.13;;;-2.77;94.70
58473;BME280;44775;51.564;5.460;2023-03-01T01:33:59;102767.09;;;-2.79;94.56
58473;BME280;44775;51.564;5.460;2023-03-01T01:36:24;102765.06;;;-2.68;95.05
58473;BME280;44775;51.564;5.460;2023-03-01T01:38:50;102762.56;;;-2.72;96.10
58473;BME280;44775;51.564;5.460;2023-03-01T01:41:15;102762.66;;;-2.77;96.15
58473;BME280;44775;51.564;5.460;2023-03-01T01:43:46;102756.56;;;-2.76;96.33
58473;BME280;44775;51.564;5.460;2023-03-01T01:46:31;102748.72;;;-2.77;95.49
58473;BME280;44775;51.564;5.460;2023-03-01T01:49:04;102755.72;;;-2.78;96.63
58473;BME280;44775;51.564;5.460;2023-03-01T01:51:38;102751.41;;;-2.80;96.38
58473;BME280;44775;51.564;5.460;2023-03-01T01:54:16;102747.84;;;-2.76;96.10
58473;BME280;44775;51.564;5.460;2023-03-01T01:56:49;102744.41;;;-2.78;95.78
58473;BME280;44775;51.564;5.460;2023-03-01T01:59:16;102746.03;;;-2.73;97.31
58473;BME280;44775;51.564;5.460;2023-03-01T02:01:43;102737.41;;;-2.78;95.94
58473;BME280;44775;51.564;5.460;2023-03-01T02:04:08;102740.00;;;-2.76;95.47
58473;BME280;44775;51.564;5.460;2023-03-01T02:06:38;102742.69;;;-2.79;96.62
58473;BME280;44775;51.564;5.460;2023-03-01T02:09:07;102724.44;;;-2.82;97.45
58473;BME280;44775;51.564;5.460;2023-03-01T02:11:34;102725.09;;;-2.74;96.58
58473;BME280;44775;51.564;5.460;2023-03-01T02:14:02;102729.56;;;-2.78;96.64
58473;BME280;44775;51.564;5.460;2023-03-01T02:16:28;102727.84;;;-2.79;96.13
58473;BME280;44775;51.564;5.460;2023-03-01T02:18:54;102722.88;;;-2.91;96.48
58473;BME280;44775;51.564;5.460;2023-03-01T02:21:29;102724.53;;;-2.87;96.82
58473;BME280;44775;51.564;5.460;2023-03-01T02:23:55;102716.84;;;-2.93;96.71
58473;BME280;44775;51.564;5.460;2023-03-01T02:26:40;102722.09;;;-2.93;96.96
58473;BME280;44775;51.564;5.460;2023-03-01T02:29:06;102729.28;;;-3.03;98.04
58473;BME280;44775;51.564;5.460;2023-03-01T02:31:32;102724.97;;;-3.05;96.74
58473;BME280;44775;51.564;5.460;2023-03-01T02:34:07;102726.59;;;-3.00;98.07
58473;BME280;44775;51.564;5.460;2023-03-01T02:36:36;102721.53;;;-3.08;98.47
58473;BME280;44775;51.564;5.460;2023-03-01T02:39:03;102729.41;;;-3.09;95.67
58473;BME280;44775;51.564;5.460;2023-03-01T02:41:33;102725.97;;;-3.11;99.10
58473;BME280;44775;51.564;5.460;2023-03-01T02:43:59;102732.16;;;-3.14;100.00
58473;BME280;44775;51.564;5.460;2023-03-01T02:46:25;102718.28;;;-3.17;100.00
58473;BME280;44775;51.564;5.460;2023-03-01T02:48:54;102732.22;;;-3.18;100.00
58473;BME280;44775;51.564;5.460;2023-03-01T02:56:45;102725.03;;;-3.07;99.47
58473;BME280;44775;51.564;5.460;2023-03-01T02:59:14;102726.69;;;-3.04;100.00
58473;BME280;44775;51.564;5.460;2023-03-01T03:01:40;102720.47;;;-3.00;99.70
58473;BME280;44775;51.564;5.460;2023-03-01T03:04:09;102707.63;;;-3.10;99.83
58473;BME280;44775;51.564;5.460;2023-03-01T03:06:36;102715.41;;;-3.06;99.20
58473;BME280;44775;51.564;5.460;2023-03-01T03:09:01;102709.28;;;-3.05;99.71
58473;BME280;44775;51.564;5.460;2023-03-01T03:11:27;102721.50;;;-3.06;100.00
58473;BME280;44775;51.564;5.460;2023-03-01T03:13:52;102720.72;;;-3.11;100.00
58473;BME280;44775;51.564;5.460;2023-03-01T03:16:18;102725.75;;;-3.02;100.00
58473;BME280;44775;51.564;5.460;2023-03-01T03:18:44;102723.19;;;-3.03;100.00
58473;BME280;44775;51.564;5.460;2023-03-01T03:21:11;102718.75;;;-3.00;100.00
58473;BME280;44775;51.564;5.460;2023-03-01T03:23:37;102719.81;;;-3.09;99.55
58473;BME280;44775;51.564;5.460;2023-03-01T03:26:03;102715.56;;;-3.14;100.00
58473;BME280;44775;51.564;5.460;2023-03-01T03:28:30;102721.59;;;-3.11;100.00
58473;BME280;44775;51.564;5.460;2023-03-01T03:30:56;102717.25;;;-3.12;100.00
58473;BME280;44775;51.564;5.460;2023-03-01T03:33:21;102713.72;;;-3.09;100.00
58473;BME280;44775;51.564;5.460;2023-03-01T03:35:48;102719.09;;;-3.15;100.00
58473;BME280;44775;51.564;5.460;2023-03-01T03:38:16;102705.16;;;-3.16;100.00
58473;BME280;44775;51.564;5.460;2023-03-01T03:43:10;102716.28;;;-3.08;100.00
58473;BME280;44775;51.564;5.460;2023-03-01T03:45:37;102710.25;;;-3.10;100.00
58473;BME280;44775;51.564;5.460;2023-03-01T03:48:04;102718.88;;;-3.06;99.89
58473;BME280;44775;51.564;5.460;2023-03-01T03:50:30;102710.25;;;-3.10;100.00
58473;BME280;44775;51.564;5.460;2023-03-01T03:52:55;102709.47;;;-3.15;100.00
58473;BME280;44775;51.564;5.460;2023-03-01T03:55:21;102706.97;;;-3.19;100.00
58473;BME280;44775;51.564;5.460;2023-03-01T03:57:47;102711.13;;;-3.11;100.00
58473;BME280;44775;51.564;5.460;2023-03-01T04:00:19;102708.69;;;-3.17;100.00
58473;BME280;44775;51.564;5.460;2023-03-01T04:02:46;102705.28;;;-3.22;100.00
58473;BME280;44775;51.564;5.460;2023-03-01T04:05:13;102702.78;;;-3.26;100.00
58473;BME280;44775;51.564;5.460;2023-03-01T04:07:42;102702.19;;;-3.39;100.00
58473;BME280;44775;51.564;5.460;2023-03-01T04:10:11;102688.47;;;-3.49;100.00
58473;BME280;44775;51.564;5.460;2023-03-01T04:12:37;102669.59;;;-3.63;100.00
58473;BME280;44775;51.564;5.460;2023-03-01T04:15:04;102685.81;;;-3.47;100.00
58473;BME280;44775;51.564;5.460;2023-03-01T04:17:38;102688.56;;;-3.53;100.00
58473;BME280;44775;51.564;5.460;2023-03-01T04:20:05;102691.19;;;-3.53;100.00
58473;BME280;44775;51.564;5.460;2023-03-01T04:22:30;102694.59;;;-3.51;100.00
58473;BME280;44775;51.564;5.460;2023-03-01T04:24:57;102688.59;;;-3.55;100.00
58473;BME280;44775;51.564;5.460;2023-03-01T04:27:23;102687.78;;;-3.59;100.00
58473;BME280;44775;51.564;5.460;2023-03-01T04:29:48;102680.97;;;-3.64;100.00
58473;BME280;44775;51.564;5.460;2023-03-01T04:32:13;102675.81;;;-3.69;100.00
58473;BME280;44775;51.564;5.460;2023-03-01T04:34:41;102669.91;;;-3.77;100.00
58473;BME280;44775;51.564;5.460;2023-03-01T04:37:06;102681.94;;;-3.71;100.00
58473;BME280;44775;51.564;5.460;2023-03-01T04:39:31;102674.28;;;-3.77;100.00
58473;BME280;44775;51.564;5.460;2023-03-01T04:41:57;102669.13;;;-3.82;100.00
58473;BME280;44775;51.564;5.460;2023-03-01T04:44:22;102671.84;;;-3.87;100.00
58473;BME280;44775;51.564;5.460;2023-03-01T04:46:49;102672.59;;;-3.82;100.00
58473;BME280;44775;51.564;5.460;2023-03-01T04:49:15;102672.81;;;-3.92;100.00
58473;BME280;44775;51.564;5.460;2023-03-01T04:51:41;102661.38;;;-3.87;100.00
58473;BME280;44775;51.564;5.460;2023-03-01T04:54:06;102658.78;;;-3.88;100.00
58473;BME280;44775;51.564;5.460;2023-03-01T04:56:34;102647.53;;;-3.90;100.00
58473;BME280;44775;51.564;5.460;2023-03-01T04:58:59;102649.84;;;-3.76;100.00
58473;BME280;44775;51.564;5.460;2023-03-01T05:01:25;102646.47;;;-3.82;100.00
58473;BME280;44775;51.564;5.460;2023-03-01T05:03:51;102662.00;;;-3.74;100.00
58473;BME280;44775;51.564;5.460;2023-03-01T05:06:18;102664.69;;;-3.78;100.00
58473;BME280;44775;51.564;5.460;2023-03-01T05:08:44;102657.75;;;-3.80;100.00
58473;BME280;44775;51.564;5.460;2023-03-01T05:11:10;102650.84;;;-3.82;100.00
58473;BME280;44775;51.564;5.460;2023-03-01T05:13:36;102653.50;;;-3.85;100.00
58473;BME280;44775;51.564;5.460;2023-03-01T05:16:03;102650.09;;;-3.87;100.00
58473;BME280;44775;51.564;5.460;2023-03-01T05:18:32;102654.47;;;-3.89;100.00
58473;BME280;44775;51.564;5.460;2023-03-01T05:21:16;102654.47;;;-3.89;100.00
58473;BME280;44775;51.564;5.460;2023-03-01T05:23:41;102647.56;;;-3.92;100.00
58473;BME280;44775;51.564;5.460;2023-03-01T05:26:07;102633.88;;;-4.03;100.00
58473;BME280;44775;51.564;5.460;2023-03-01T05:28:33;102632.09;;;-4.01;100.00
58473;BME280;44775;51.564;5.460;2023-03-01T05:30:59;102631.28;;;-4.05;100.00
58473;BME280;44775;51.564;5.460;2023-03-01T05:33:25;102623.59;;;-4.11;100.00
58473;BME280;44775;51.564;5.460;2023-03-01T05:35:51;102627.91;;;-4.10;100.00
58473;BME280;44775;51.564;5.460;2023-03-01T05:38:18;102627.00;;;-4.09;100.00
58473;BME280;44775;51.564;5.460;2023-03-01T05:40:45;102622.50;;;-4.00;100.00
58473;BME280;44775;51.564;5.460;2023-03-01T05:43:12;102605.38;;;-4.14;100.00
58473;BME280;44775;51.564;5.460;2023-03-01T05:45:38;102614.84;;;-4.10;100.00
58473;BME280;44775;51.564;5.460;2023-03-01T05:48:05;102621.81;;;-4.10;100.00
58473;BME280;44775;51.564;5.460;2023-03-01T05:50:36;102619.22;;;-4.10;100.00
58473;BME280;44775;51.564;5.460;2023-03-01T05:53:19;102607.94;;;-4.12;100.00
58473;BME280;44775;51.564;5.460;2023-03-01T05:55:46;102604.56;;;-4.17;100.00
58473;BME280;44775;51.564;5.460;2023-03-01T05:58:17;102610.75;;;-4.23;100.00
58473;BME280;44775;51.564;5.460;2023-03-01T06:00:44;102606.44;;;-4.24;100.00
58473;BME280;44775;51.564;5.460;2023-03-01T06:03:11;102612.63;;;-4.28;100.00
58473;BME280;44775;51.564;5.460;2023-03-01T06:05:37;102611.75;;;-4.29;100.00
58473;BME280;44775;51.564;5.460;2023-03-01T06:08:02;102617.00;;;-4.30;100.00
58473;BME280;44775;51.564;5.460;2023-03-01T06:10:28;102611.81;;;-4.32;100.00
58473;BME280;44775;51.564;5.460;2023-03-01T06:12:54;102617.91;;;-4.31;100.00
58473;BME280;44775;51.564;5.460;2023-03-01T06:15:20;102604.97;;;-4.39;100.00
58473;BME280;44775;51.564;5.460;2023-03-01T06:17:46;102609.38;;;-4.42;100.00
58473;BME280;44775;51.564;5.460;2023-03-01T06:20:20;102599.75;;;-4.39;100.00
58473;BME280;44775;51.564;5.460;2023-03-01T06:22:46;102603.31;;;-4.43;100.00
58473;BME280;44775;51.564;5.460;2023-03-01T06:25:13;102605.81;;;-4.35;100.00
58473;BME280;44775;51.564;5.460;2023-03-01T06:27:39;102614.50;;;-4.36;100.00
58473;BME280;44775;51.564;5.460;2023-03-01T06:30:05;102618.84;;;-4.37;100.00
58473;BME280;44775;51.564;5.460;2023-03-01T06:32:32;102614.50;;;-4.36;100.00
58473;BME280;44775;51.564;5.460;2023-03-01T06:34:57;102614.44;;;-4.33;100.00
58473;BME280;44775;51.564;5.460;2023-03-01T06:37:24;102614.22;;;-4.21;100.00
58473;BME280;44775;51.564;5.460;2023-03-01T06:39:49;102624.50;;;-4.13;100.00
58473;BME280;44775;51.564;5.460;2023-03-01T06:42:14;102618.38;;;-4.12;100.00
58473;BME280;44775;51.564;5.460;2023-03-01T06:44:40;102623.53;;;-4.08;100.00
58473;BME280;44775;51.564;5.460;2023-03-01T06:47:05;102622.56;;;-4.05;100.00
58473;BME280;44775;51.564;5.460;2023-03-01T06:49:30;102625.19;;;-4.05;100.00
58473;BME280;44775;51.564;5.460;2023-03-01T06:51:56;102624.28;;;-4.03;100.00
58473;BME280;44775;51.564;5.460;2023-03-01T06:54:22;102624.66;;;-3.79;100.00
58473;BME280;44775;51.564;5.460;2023-03-01T06:56:48;102622.16;;;-3.84;100.00
58473;BME280;44775;51.564;5.460;2023-03-01T06:59:15;102616.69;;;-3.73;100.00
58473;BME280;44775;51.564;5.460;2023-03-01T07:01:40;102614.13;;;-3.74;100.00
58473;BME280;44775;51.564;5.460;2023-03-01T07:04:06;102612.31;;;-3.72;100.00
58473;BME280;44775;51.564;5.460;2023-03-01T07:06:31;102616.56;;;-3.68;100.00
58473;BME280;44775;51.564;5.460;2023-03-01T07:08:56;102612.84;;;-3.57;100.00
58473;BME280;44775;51.564;5.460;2023-03-01T07:11:22;102607.41;;;-3.47;100.00
58473;BME280;44775;51.564;5.460;2023-03-01T07:13:48;102607.97;;;-3.35;100.00
58473;BME280;44775;51.564;5.460;2023-03-01T07:16:13;102603.53;;;-3.31;100.00
58473;BME280;44775;51.564;5.460;2023-03-01T07:18:40;102615.34;;;-3.15;100.00
58473;BME280;44775;51.564;5.460;2023-03-01T07:21:09;102615.84;;;-3.00;100.00
58473;BME280;44775;51.564;5.460;2023-03-01T07:23:36;102615.50;;;-2.85;100.00
58473;BME280;44775;51.564;5.460;2023-03-01T07:26:02;102615.97;;;-2.71;100.00
58473;BME280;44775;51.564;5.460;2023-03-01T07:28:27;102625.84;;;-2.46;100.00
58473;BME280;44775;51.564;5.460;2023-03-01T07:30:53;102626.34;;;-2.33;100.00
58473;BME280;44775;51.564;5.460;2023-03-01T07:33:18;102627.03;;;-2.27;100.00
58473;BME280;44775;51.564;5.460;2023-03-01T07:35:44;102637.19;;;-2.16;100.00
58473;BME280;44775;51.564;5.460;2023-03-01T07:38:09;102628.31;;;-2.10;100.00
58473;BME280;44775;51.564;5.460;2023-03-01T07:40:35;102628.09;;;-2.03;99.49
58473;BME280;44775;51.564;5.460;2023-03-01T07:43:00;102636.72;;;-1.99;99.23
58473;BME280;44775;51.564;5.460;2023-03-01T07:45:29;102638.06;;;-1.84;99.17
58473;BME280;44775;51.564;5.460;2023-03-01T07:47:55;102630.63;;;-1.70;97.62
58473;BME280;44775;51.564;5.460;2023-03-01T07:50:21;102629.53;;;-1.61;98.38
58473;BME280;44775;51.564;5.460;2023-03-01T07:52:47;102632.47;;;-1.44;96.65
58473;BME280;44775;51.564;5.460;2023-03-01T07:55:13;102632.66;;;-1.22;95.86
58473;BME280;44775;51.564;5.460;2023-03-01T07:57:39;102619.75;;;-1.02;94.11
58473;BME280;44775;51.564;5.460;2023-03-01T08:00:05;102620.28;;;-0.65;92.51
58473;BME280;44775;51.564;5.460;2023-03-01T08:02:31;102627.09;;;-0.35;90.78
58473;BME280;44775;51.564;5.460;2023-03-01T08:04:56;102624.66;;;-0.16;88.47
58473;BME280;44775;51.564;5.460;2023-03-01T08:07:21;102626.25;;;-0.12;88.85
58473;BME280;44775;51.564;5.460;2023-03-01T08:09:47;102629.41;;;-0.02;89.79
58473;BME280;44775;51.564;5.460;2023-03-01T08:12:12;102640.03;;;0.18;91.26
58473;BME280;44775;51.564;5.460;2023-03-01T08:14:37;102628.13;;;0.55;90.39
58473;BME280;44775;51.564;5.460;2023-03-01T08:17:03;102630.94;;;0.94;87.95
58473;BME280;44775;51.564;5.460;2023-03-01T08:19:28;102637.09;;;1.36;84.67
58473;BME280;44775;51.564;5.460;2023-03-01T08:21:54;102619.13;;;1.66;84.69
58473;BME280;44775;51.564;5.460;2023-03-01T08:24:20;102630.00;;;1.98;81.87
58473;BME280;44775;51.564;5.460;2023-03-01T08:26:45;102622.75;;;2.22;81.56
58473;BME280;44775;51.564;5.460;2023-03-01T08:29:10;102628.88;;;2.60;74.45
58473;BME280;44775;51.564;5.460;2023-03-01T08:31:38;102629.97;;;2.73;72.28
58473;BME280;44775;51.564;5.460;2023-03-01T08:34:09;102630.19;;;3.05;73.44
58473;BME280;44775;51.564;5.460;2023-03-01T08:36:38;102627.47;;;3.24;68.95
58473;BME280;44775;51.564;5.460;2023-03-01T08:39:06;102632.00;;;3.39;68.37
58473;BME280;44775;51.564;5.460;2023-03-01T08:41:31;102627.94;;;3.49;71.34
58473;BME280;44775;51.564;5.460;2023-03-01T08:43:57;102620.34;;;3.76;76.94
58473;BME280;44775;51.564;5.460;2023-03-01T08:46:29;102604.81;;;4.03;80.36
58473;BME280;44775;51.564;5.460;2023-03-01T08:48:55;102613.88;;;4.31;65.98
58473;BME280;44775;51.564;5.460;2023-03-01T08:51:22;102602.78;;;4.40;64.53
58473;BME280;44775;51.564;5.460;2023-03-01T08:53:47;102609.44;;;4.47;67.67
58473;BME280;44775;51.564;5.460;2023-03-01T08:56:13;102609.44;;;4.63;63.80
58473;BME280;44775;51.564;5.460;2023-03-01T08:58:39;102623.25;;;4.84;64.80
58473;BME280;44775;51.564;5.460;2023-03-01T09:01:09;102609.44;;;5.09;61.04
58473;BME280;44775;51.564;5.460;2023-03-01T09:03:34;102617.06;;;5.30;56.49
58473;BME280;44775;51.564;5.460;2023-03-01T09:06:01;102605.69;;;5.13;58.58
58473;BME280;44775;51.564;5.460;2023-03-01T09:08:27;102603.06;;;5.28;57.34
58473;BME280;44775;51.564;5.460;2023-03-01T09:10:52;102607.34;;;5.44;56.86
58473;BME280;44775;51.564;5.460;2023-03-01T09:13:18;102595.81;;;5.60;59.77
58473;BME280;44775;51.564;5.460;2023-03-01T09:15:43;102603.13;;;5.71;57.90
58473;BME280;44775;51.564;5.460;2023-03-01T09:18:08;102595.72;;;5.76;55.54
58473;BME280;44775;51.564;5.460;2023-03-01T09:20:34;102600.00;;;5.78;58.08
58473;BME280;44775;51.564;5.460;2023-03-01T09:22:59;102591.38;;;5.89;57.30
58473;BME280;44775;51.564;5.460;2023-03-01T09:25:24;102586.25;;;5.86;55.72
58473;BME280;44775;51.564;5.460;2023-03-01T09:27:54;102587.88;;;6.03;52.81
58473;BME280;44775;51.564;5.460;2023-03-01T09:30:20;102590.72;;;6.00;54.56
58473;BME280;44775;51.564;5.460;2023-03-01T09:32:45;102588.63;;;6.19;53.66
58473;BME280;44775;51.564;5.460;2023-03-01T09:35:11;102579.47;;;6.37;50.74
58473;BME280;44775;51.564;5.460;2023-03-01T09:37:37;102585.16;;;6.46;52.42
58473;BME280;44775;51.564;5.460;2023-03-01T09:40:05;102581.53;;;6.47;50.63
58473;BME280;44775;51.564;5.460;2023-03-01T09:42:34;102582.31;;;6.49;51.51
58473;BME280;44775;51.564;5.460;2023-03-01T09:45:35;102580.69;;;6.73;54.45
58473;BME280;44775;51.564;5.460;2023-03-01T09:48:03;102575.13;;;6.63;52.50
58473;BME280;44775;51.564;5.460;2023-03-01T09:50:35;102570.44;;;6.94;53.15
58473;BME280;44775;51.564;5.460;2023-03-01T09:53:13;102570.78;;;7.15;49.78
58473;BME280;44775;51.564;5.460;2023-03-01T09:56:04;102577.47;;;7.08;50.23
58473;BME280;44775;51.564;5.460;2023-03-01T09:58:51;102564.75;;;7.13;52.94
58473;BME280;44775;51.564;5.460;2023-03-01T10:01:37;102574.28;;;7.03;51.81
58473;BME280;44775;51.564;5.460;2023-03-01T10:07:01;102562.94;;;7.14;51.44
58473;BME280;44775;51.564;5.460;2023-03-01T10:09:33;102548.03;;;7.11;49.88
58473;BME280;44775;51.564;5.460;2023-03-01T10:12:01;102545.72;;;7.19;51.10
58473;BME280;44775;51.564;5.460;2023-03-01T10:14:37;102546.59;;;7.32;49.70
58473;BME280;44775;51.564;5.460;2023-03-01T10:17:34;102538.44;;;7.72;52.38
58473;BME280;44775;51.564;5.460;2023-03-01T10:20:23;102528.28;;;8.03;54.44
58473;BME280;44775;51.564;5.460;2023-03-01T10:22:50;102536.78;;;8.08;49.17
58473;BME280;44775;51.564;5.460;2023-03-01T10:25:44;102529.25;;;8.02;48.58
58473;BME280;44775;51.564;5.460;2023-03-01T10:28:22;102537.97;;;8.04;50.68
58473;BME280;44775;51.564;5.460;2023-03-01T10:30:50;102522.50;;;8.09;46.41
58473;BME280;44775;51.564;5.460;2023-03-01T10:33:17;102525.78;;;8.49;44.41
58473;BME280;44775;51.564;5.460;2023-03-01T10:35:45;102524.81;;;8.74;44.24
58473;BME280;44775;51.564;5.460;2023-03-01T10:38:13;102521.53;;;8.47;49.09
58473;BME280;44775;51.564;5.460;2023-03-01T10:43:25;102514.75;;;8.43;44.43
58473;BME280;44775;51.564;5.460;2023-03-01T10:45:51;102513.28;;;8.39;48.45
58473;BME280;44775;51.564;5.460;2023-03-01T10:48:19;102527.97;;;8.32;44.02
58473;BME280;44775;51.564;5.460;2023-03-01T10:50:51;102524.91;;;8.38;44.54
58473;BME280;44775;51.564;5.460;2023-03-01T10:53:33;102517.69;;;8.27;43.53
58473;BME280;44775;51.564;5.460;2023-03-01T10:56:13;102509.16;;;8.70;43.47
58473;BME280;44775;51.564;5.460;2023-03-01T10:58:41;102504.81;;;8.69;42.40
58473;BME280;44775;51.564;5.460;2023-03-01T11:03:40;102502.81;;;8.60;41.86
58473;BME280;44775;51.564;5.460;2023-03-01T11:08:43;102513.25;;;8.63;42.16
58473;BME280;44775;51.564;5.460;2023-03-01T11:13:35;102512.53;;;9.07;42.78
58473;BME280;44775;51.564;5.460;2023-03-01T11:16:07;102514.34;;;8.95;40.77
58473;BME280;44775;51.564;5.460;2023-03-01T11:18:35;102518.38;;;8.77;40.97
58473;BME280;44775;51.564;5.460;2023-03-01T11:21:01;102504.28;;;8.88;41.55
58473;BME280;44775;51.564;5.460;2023-03-01T11:23:29;102520.19;;;8.65;42.44
58473;BME280;44775;51.564;5.460;2023-03-01T11:25:58;102511.38;;;8.76;42.00
58473;BME280;44775;51.564;5.460;2023-03-01T11:28:25;102500.94;;;8.73;42.91
58473;BME280;44775;51.564;5.460;2023-03-01T11:31:06;102505.44;;;9.30;41.82
58473;BME280;44775;51.564;5.460;2023-03-01T11:33:47;102492.09;;;9.19;43.31
58473;BME280;44775;51.564;5.460;2023-03-01T11:36:31;102493.25;;;9.04;42.18
58473;BME280;44775;51.564;5.460;2023-03-01T11:44:34;102493.28;;;9.71;39.89
58473;BME280;44775;51.564;5.460;2023-03-01T11:47:27;102485.38;;;9.92;41.55
58473;BME280;44775;51.564;5.460;2023-03-01T11:55:30;102489.19;;;9.67;38.25
58473;BME280;44775;51.564;5.460;2023-03-01T12:22:42;102458.13;;;10.53;40.10
58473;BME280;44775;51.564;5.460;2023-03-01T12:31:33;102442.38;;;10.50;39.57
58473;BME280;44775;51.564;5.460;2023-03-01T12:40:03;102443.09;;;11.24;41.12
58473;BME280;44775;51.564;5.460;2023-03-01T12:50:53;102429.25;;;11.50;37.46
58473;BME280;44775;51.564;5.460;2023-03-01T12:53:32;102414.06;;;11.60;41.65
58473;BME280;44775;51.564;5.460;2023-03-01T12:56:02;102418.28;;;11.63;36.67
58473;BME280;44775;51.564;5.460;2023-03-01T12:58:41;102427.31;;;11.62;40.30
58473;BME280;44775;51.564;5.460;2023-03-01T13:07:00;102400.03;;;11.37;37.62
58473;BME280;44775;51.564;5.460;2023-03-01T13:10:00;102395.19;;;11.21;39.61
58473;BME280;44775;51.564;5.460;2023-03-01T13:17:47;102389.97;;;10.89;37.15
58473;BME280;44775;51.564;5.460;2023-03-01T13:20:18;102391.72;;;11.00;40.61
58473;BME280;44775;51.564;5.460;2023-03-01T13:22:45;102373.84;;;11.31;37.50
58473;BME280;44775;51.564;5.460;2023-03-01T13:27:38;102374.16;;;11.57;38.71
58473;BME280;44775;51.564;5.460;2023-03-01T13:35:53;102363.25;;;11.89;39.15
58473;BME280;44775;51.564;5.460;2023-03-01T13:41:27;102334.06;;;11.96;36.63
58473;BME280;44775;51.564;5.460;2023-03-01T13:44:01;102343.78;;;12.07;35.22
58473;BME280;44775;51.564;5.460;2023-03-01T13:46:36;102328.44;;;11.89;37.95
58473;BME280;44775;51.564;5.460;2023-03-01T13:49:02;102323.84;;;11.61;37.92
58473;BME280;44775;51.564;5.460;2023-03-01T13:51:28;102324.84;;;11.59;41.52
58473;BME280;44775;51.564;5.460;2023-03-01T13:53:54;102315.28;;;11.76;45.14
58473;BME280;44775;51.564;5.460;2023-03-01T13:56:24;102311.31;;;11.80;38.86
58473;BME280;44775;51.564;5.460;2023-03-01T13:58:58;102304.44;;;11.97;36.35
58473;BME280;44775;51.564;5.460;2023-03-01T14:01:28;102305.88;;;12.01;36.07
58473;BME280;44775;51.564;5.460;2023-03-01T14:03:54;102303.16;;;11.82;36.59
58473;BME280;44775;51.564;5.460;2023-03-01T14:06:23;102302.00;;;11.46;39.12
58473;BME280;44775;51.564;5.460;2023-03-01T14:08:52;102308.19;;;11.46;38.67
58473;BME280;44775;51.564;5.460;2023-03-01T14:11:38;102299.84;;;11.30;36.92
58473;BME280;44775;51.564;5.460;2023-03-01T14:17:16;102290.47;;;11.45;36.63
58473;BME280;44775;51.564;5.460;2023-03-01T14:19:45;102297.75;;;11.33;36.37
58473;BME280;44775;51.564;5.460;2023-03-01T14:22:29;102295.94;;;11.34;36.57
58473;BME280;44775;51.564;5.460;2023-03-01T14:25:21;102299.84;;;11.30;37.77
58473;BME280;44775;51.564;5.460;2023-03-01T14:27:52;102281.34;;;10.98;41.53
58473;BME280;44775;51.564;5.460;2023-03-01T14:30:23;102295.84;;;10.95;38.65
58473;BME280;44775;51.564;5.460;2023-03-01T14:32:58;102292.47;;;11.03;36.53
58473;BME280;44775;51.564;5.460;2023-03-01T14:35:26;102288.78;;;10.54;37.46
58473;BME280;44775;51.564;5.460;2023-03-01T14:37:52;102278.22;;;10.31;40.00